WetterOnline ( https://www.wetteronline.ch )

Wetter aktuell Taunus

Aktuelles Wetter: Kleiner Feldberg (802m)

6-stündlich | Neueste Meldungen
Ortszeit Temperatur Wetter
Mo, 06.07. 2:00 14.2° C leicht bewölkt
So, 05.07. 20:00 17.7° C bedeckt
So, 05.07. 14:00 18.9° C bedeckt
So, 05.07. 8:00 14.3° C bewölkt
So, 05.07. 2:00 15.3° C bewölkt
Sa, 04.07. 20:00 17.8° C bedeckt
Sa, 04.07. 14:00 19.0° C wolkig
Sa, 04.07. 8:00 12.8° C bedeckt
Ortszeit Temperatur Wetter
Mo, 06.07. 2:00 14.2° C leicht bewölkt
Mo, 06.07. 1:50 14.2° C leicht bewölkt
Mo, 06.07. 1:40 14.3° C leicht bewölkt
Mo, 06.07. 1:30 14.4° C wolkig
Mo, 06.07. 1:20 14.4° C wolkig
Mo, 06.07. 1:10 14.7° C bewölkt
Mo, 06.07. 1:00 14.5° C leicht bewölkt
Mo, 06.07. 0:30 14.7° C leicht bewölkt
Mo, 06.07. 0:00 14.8° C wolkig
So, 05.07. 23:30 15.0° C fast wolkenlos
So, 05.07. 23:00 15.2° C wolkenlos
Ortszeit Relative Feuchte Sichtweite
Mo, 06.07. 2:00 96% 45 km
So, 05.07. 20:00 77% 45 km
So, 05.07. 14:00 75% 50 km
So, 05.07. 8:00 97% 22 km
So, 05.07. 2:00 83% 55 km
Sa, 04.07. 20:00 60% 50 km
Sa, 04.07. 14:00 52% 35 km
Sa, 04.07. 8:00 74% 55 km
Ortszeit Relative Feuchte Sichtweite
Mo, 06.07. 2:00 96% 45 km
Mo, 06.07. 1:50 96% -
Mo, 06.07. 1:40 96% -
Mo, 06.07. 1:30 97% 40 km
Mo, 06.07. 1:20 97% -
Mo, 06.07. 1:10 96% -
Mo, 06.07. 1:00 97% 40 km
Mo, 06.07. 0:30 96% 50 km
Mo, 06.07. 0:00 96% 50 km
So, 05.07. 23:30 93% 55 km
So, 05.07. 23:00 92% 60 km
Ortszeit Niederschlagsmenge Niederschlagsart
Mo, 06.07. 2:00 0.1 l/m2 in 6 Std. Regen
So, 05.07. 20:00 0.1 l/m2 in 12 Std. Sprühregen
So, 05.07. 14:00 0.1 l/m2 in 6 Std. Sprühregen
So, 05.07. 8:00 1 l/m2 in 12 Std. Regen
So, 05.07. 2:00 0.1 l/m2 in 6 Std. Regen
Sa, 04.07. 20:00 0.0 l/m2 in 12 Std. -
Sa, 04.07. 14:00 0.0 l/m2 in 6 Std. -
Sa, 04.07. 8:00 0.0 l/m2 in 12 Std. -
Ortszeit Niederschlagsmenge Niederschlagsart
Mo, 06.07. 2:00 0.0 l/m2 in 1 Std. Regen
Mo, 06.07. 1:50 keine Meldung -
Mo, 06.07. 1:40 keine Meldung -
Mo, 06.07. 1:30 0.0 l/m2 in 1 Std. -
Mo, 06.07. 1:20 keine Meldung -
Mo, 06.07. 1:10 keine Meldung -
Mo, 06.07. 1:00 0.0 l/m2 in 1 Std. -
Mo, 06.07. 0:30 0.0 l/m2 in 1 Std. -
Mo, 06.07. 0:00 0.0 l/m2 in 1 Std. -
So, 05.07. 23:30 0.0 l/m2 in 1 Std. -
So, 05.07. 23:00 0.0 l/m2 in 1 Std. Regen
Ortszeit Stärke Spitze Richtung
km/h Bft. km/h Grad Sektor
Mo, 06.07. 2:00 17 3 46 280° W
So, 05.07. 20:00 14 3 47 250° W
So, 05.07. 14:00 13 3 44 250° W
So, 05.07. 8:00 13 3 33 240° SW
So, 05.07. 2:00 13 3 37 260° W
Sa, 04.07. 20:00 14 3 43 230° SW
Sa, 04.07. 14:00 19 3 50 230° SW
Sa, 04.07. 8:00 13 3 35 250° W
Ortszeit Stärke Spitze Richtung
km/h Bft. km/h Grad Sektor
Mo, 06.07. 2:00 17 3 37 280° W
Mo, 06.07. 1:50 17 3 - 280° W
Mo, 06.07. 1:40 17 3 - 280° W
Mo, 06.07. 1:30 14 3 36 270° W
Mo, 06.07. 1:20 14 3 - 270° W
Mo, 06.07. 1:10 14 3 - 270° W
Mo, 06.07. 1:00 14 3 36 270° W
Mo, 06.07. 0:30 14 3 36 270° W
Mo, 06.07. 0:00 14 3 36 260° W
So, 05.07. 23:30 14 3 29 260° W
So, 05.07. 23:00 13 3 43 260° W
Ortszeit Untergrenze Bedeckung Gattung
total tief tief mittel hoch
Mo, 06.07. 2:00 210 m 3/8 3/8 - - -
So, 05.07. 20:00 600 m 8/8 8/8 - - -
So, 05.07. 14:00 510 m 8/8 8/8 - - -
So, 05.07. 8:00 150 m 7/8 8/8 - - -
So, 05.07. 2:00 390 m 7/8 7/8 - - -
Sa, 04.07. 20:00 930 m 8/8 8/8 - - -
Sa, 04.07. 14:00 4200 m 8/8 8/8 - - -
Sa, 04.07. 8:00 4800 m 8/8 8/8 - - -
Ortszeit Bedeckungsgrad in Achtel und Wolkenuntergrenze
Mo, 06.07. 2:00 3(210m)
Mo, 06.07. 1:50 3(210m)
Mo, 06.07. 1:40 4(210m)
Mo, 06.07. 1:30 3(150m) 4(270m) 6(1380m)
Mo, 06.07. 1:20 3(150m) 4(270m) 6(1380m)
Mo, 06.07. 1:10 4(150m) 7(1380m)
Mo, 06.07. 1:00 2(150m) 3(1500m) 5(1500m)
Mo, 06.07. 0:30 2(210m) 3(1500m)
Mo, 06.07. 0:00 4(210m) 5(330m)
So, 05.07. 23:30 1(270m)
So, 05.07. 23:00 keine Wolken
Ortszeit Stationsdruck (hPa) Tendenz (hPa in 3 Std.)
Mo, 06.07. 2:00 919 - 1,0
So, 05.07. 20:00 920 - 0,7
So, 05.07. 14:00 922 0,0
So, 05.07. 8:00 921 - 0,3
So, 05.07. 2:00 922 - 0,6
Sa, 04.07. 20:00 923 - 0,5
Sa, 04.07. 14:00 923 - 0,7
Sa, 04.07. 8:00 924 + 0,5
Ortszeit Stationsdruck (hPa) Tendenz (hPa in 3 Std.)
Mo, 06.07. 2:00 919 - 1,0
Mo, 06.07. 1:50 919 keine Meldung
Mo, 06.07. 1:40 919 keine Meldung
Mo, 06.07. 1:30 919 - 0,8
Mo, 06.07. 1:20 919 keine Meldung
Mo, 06.07. 1:10 919 keine Meldung
Mo, 06.07. 1:00 919 - 0,8
Mo, 06.07. 0:30 919 - 0,6
Mo, 06.07. 0:00 919 - 0,6
So, 05.07. 23:30 919 - 0,6
So, 05.07. 23:00 920 - 0,5
Ortszeit Schneehöhe (cm)
Mo, 06.07. 2:00 -
So, 05.07. 20:00 -
So, 05.07. 14:00 -
So, 05.07. 8:00 -
So, 05.07. 2:00 -
Sa, 04.07. 20:00 -
Sa, 04.07. 14:00 -
Sa, 04.07. 8:00 -
Ortszeit Schneehöhe (cm)
Mo, 06.07. 2:00 -
Mo, 06.07. 1:50 -
Mo, 06.07. 1:40 -
Mo, 06.07. 1:30 -
Mo, 06.07. 1:20 -
Mo, 06.07. 1:10 -
Mo, 06.07. 1:00 -
Mo, 06.07. 0:30 -
Mo, 06.07. 0:00 -
So, 05.07. 23:30 -
So, 05.07. 23:00 -
Link zu dieser Seite / Seite empfehlen

Das Wetter in ...